sensor_id;sensor_type;location;lat;lon;timestamp;temperature;humidity
31003;DHT22;23051;-6.372;106.786;2022-10-16T00:01:51;27.10;92.10
31003;DHT22;23051;-6.372;106.786;2022-10-16T00:03:57;27.10;92.00
31003;DHT22;23051;-6.372;106.786;2022-10-16T00:06:00;27.10;91.90
31003;DHT22;23051;-6.372;106.786;2022-10-16T00:08:05;27.10;91.80
31003;DHT22;23051;-6.372;106.786;2022-10-16T00:10:09;27.20;91.80
31003;DHT22;23051;-6.372;106.786;2022-10-16T00:12:11;27.20;91.70
31003;DHT22;23051;-6.372;106.786;2022-10-16T00:14:15;27.20;91.60
31003;DHT22;23051;-6.372;106.786;2022-10-16T00:16:19;27.20;91.60
31003;DHT22;23051;-6.372;106.786;2022-10-16T00:18:21;27.20;91.60
31003;DHT22;23051;-6.372;106.786;2022-10-16T00:20:27;27.20;92.00
31003;DHT22;23051;-6.372;106.786;2022-10-16T00:22:29;27.20;91.60
31003;DHT22;23051;-6.372;106.786;2022-10-16T00:24:30;27.30;91.60
31003;DHT22;23051;-6.372;106.786;2022-10-16T00:26:35;27.30;91.60
31003;DHT22;23051;-6.372;106.786;2022-10-16T00:28:37;27.40;91.50
31003;DHT22;23051;-6.372;106.786;2022-10-16T00:30:40;27.40;91.40
31003;DHT22;23051;-6.372;106.786;2022-10-16T00:32:41;27.40;91.30
31003;DHT22;23051;-6.372;106.786;2022-10-16T00:34:46;27.40;91.20
31003;DHT22;23051;-6.372;106.786;2022-10-16T00:36:50;27.50;91.20
31003;DHT22;23051;-6.372;106.786;2022-10-16T00:38:56;27.60;91.10
31003;DHT22;23051;-6.372;106.786;2022-10-16T00:43:02;27.70;91.00
31003;DHT22;23051;-6.372;106.786;2022-10-16T00:45:07;27.80;90.90
31003;DHT22;23051;-6.372;106.786;2022-10-16T00:47:34;27.80;90.80
31003;DHT22;23051;-6.372;106.786;2022-10-16T00:49:37;27.90;90.80
31003;DHT22;23051;-6.372;106.786;2022-10-16T00:51:43;27.90;90.80
31003;DHT22;23051;-6.372;106.786;2022-10-16T00:53:49;27.90;90.70
31003;DHT22;23051;-6.372;106.786;2022-10-16T00:55:51;28.00;91.10
31003;DHT22;23051;-6.372;106.786;2022-10-16T00:57:53;28.00;90.70
31003;DHT22;23051;-6.372;106.786;2022-10-16T00:59:58;28.10;90.70
31003;DHT22;23051;-6.372;106.786;2022-10-16T01:02:04;28.10;90.60
31003;DHT22;23051;-6.372;106.786;2022-10-16T01:04:06;28.10;90.60
31003;DHT22;23051;-6.372;106.786;2022-10-16T01:08:57;28.20;90.40
31003;DHT22;23051;-6.372;106.786;2022-10-16T01:17:52;28.40;90.40
31003;DHT22;23051;-6.372;106.786;2022-10-16T01:22:04;28.50;90.30
31003;DHT22;23051;-6.372;106.786;2022-10-16T01:28:21;28.60;90.20
31003;DHT22;23051;-6.372;106.786;2022-10-16T01:30:29;28.70;90.10
31003;DHT22;23051;-6.372;106.786;2022-10-16T01:35:17;28.70;90.10
31003;DHT22;23051;-6.372;106.786;2022-10-16T01:37:48;28.80;90.10
31003;DHT22;23051;-6.372;106.786;2022-10-16T01:39:50;28.80;90.00
31003;DHT22;23051;-6.372;106.786;2022-10-16T01:42:07;28.80;90.00
31003;DHT22;23051;-6.372;106.786;2022-10-16T01:44:16;28.80;90.00
31003;DHT22;23051;-6.372;106.786;2022-10-16T01:46:22;28.90;90.00
31003;DHT22;23051;-6.372;106.786;2022-10-16T01:48:30;28.90;90.00
31003;DHT22;23051;-6.372;106.786;2022-10-16T01:50:39;28.90;90.10
31003;DHT22;23051;-6.372;106.786;2022-10-16T01:52:44;28.90;90.10
31003;DHT22;23051;-6.372;106.786;2022-10-16T01:54:52;28.90;90.10
31003;DHT22;23051;-6.372;106.786;2022-10-16T01:56:56;29.00;90.10
31003;DHT22;23051;-6.372;106.786;2022-10-16T01:59:14;29.10;90.00
31003;DHT22;23051;-6.372;106.786;2022-10-16T02:01:21;29.20;89.80
31003;DHT22;23051;-6.372;106.786;2022-10-16T02:03:24;29.30;89.40
31003;DHT22;23051;-6.372;106.786;2022-10-16T02:05:30;29.30;89.10
31003;DHT22;23051;-6.372;106.786;2022-10-16T02:07:36;29.30;89.10
31003;DHT22;23051;-6.372;106.786;2022-10-16T02:09:38;29.40;89.10
31003;DHT22;23051;-6.372;106.786;2022-10-16T02:11:43;29.40;89.00
31003;DHT22;23051;-6.372;106.786;2022-10-16T02:13:50;29.40;89.00
31003;DHT22;23051;-6.372;106.786;2022-10-16T02:16:00;29.50;89.00
31003;DHT22;23051;-6.372;106.786;2022-10-16T02:18:06;29.50;88.80
31003;DHT22;23051;-6.372;106.786;2022-10-16T02:20:09;29.50;88.70
31003;DHT22;23051;-6.372;106.786;2022-10-16T02:22:38;29.50;88.70
31003;DHT22;23051;-6.372;106.786;2022-10-16T02:24:49;29.50;88.70
31003;DHT22;23051;-6.372;106.786;2022-10-16T02:27:16;29.60;88.70
31003;DHT22;23051;-6.372;106.786;2022-10-16T02:29:29;29.70;88.60
31003;DHT22;23051;-6.372;106.786;2022-10-16T02:31:34;29.70;88.60
31003;DHT22;23051;-6.372;106.786;2022-10-16T02:33:39;29.70;88.60
31003;DHT22;23051;-6.372;106.786;2022-10-16T02:35:43;29.70;88.60
31003;DHT22;23051;-6.372;106.786;2022-10-16T02:37:48;29.70;88.60
31003;DHT22;23051;-6.372;106.786;2022-10-16T02:39:57;29.70;88.60
31003;DHT22;23051;-6.372;106.786;2022-10-16T02:42:02;29.70;88.70
31003;DHT22;23051;-6.372;106.786;2022-10-16T02:44:05;29.70;88.70
31003;DHT22;23051;-6.372;106.786;2022-10-16T02:46:07;29.70;88.50
31003;DHT22;23051;-6.372;106.786;2022-10-16T02:48:14;29.80;88.40
31003;DHT22;23051;-6.372;106.786;2022-10-16T02:50:21;29.90;88.20
31003;DHT22;23051;-6.372;106.786;2022-10-16T02:52:23;30.00;87.90
31003;DHT22;23051;-6.372;106.786;2022-10-16T02:54:24;30.10;87.60
31003;DHT22;23051;-6.372;106.786;2022-10-16T02:56:26;30.20;87.40
31003;DHT22;23051;-6.372;106.786;2022-10-16T02:58:32;30.30;87.30
31003;DHT22;23051;-6.372;106.786;2022-10-16T03:00:34;30.30;87.30
31003;DHT22;23051;-6.372;106.786;2022-10-16T03:02:38;30.30;87.30
31003;DHT22;23051;-6.372;106.786;2022-10-16T03:04:43;30.30;87.40
31003;DHT22;23051;-6.372;106.786;2022-10-16T03:06:44;30.20;87.50
31003;DHT22;23051;-6.372;106.786;2022-10-16T03:08:46;30.20;87.70
31003;DHT22;23051;-6.372;106.786;2022-10-16T03:10:51;30.10;87.80
31003;DHT22;23051;-6.372;106.786;2022-10-16T03:12:55;30.20;88.00
31003;DHT22;23051;-6.372;106.786;2022-10-16T03:15:03;30.20;87.90
31003;DHT22;23051;-6.372;106.786;2022-10-16T03:17:05;30.30;87.70
31003;DHT22;23051;-6.372;106.786;2022-10-16T03:19:10;30.40;87.40
31003;DHT22;23051;-6.372;106.786;2022-10-16T03:21:12;30.40;87.20
31003;DHT22;23051;-6.372;106.786;2022-10-16T03:23:16;30.50;87.20
31003;DHT22;23051;-6.372;106.786;2022-10-16T03:25:18;30.50;87.30
31003;DHT22;23051;-6.372;106.786;2022-10-16T03:27:20;30.50;87.30
31003;DHT22;23051;-6.372;106.786;2022-10-16T03:29:24;30.50;87.30
31003;DHT22;23051;-6.372;106.786;2022-10-16T03:31:26;30.60;87.20
31003;DHT22;23051;-6.372;106.786;2022-10-16T03:33:28;30.60;87.10
31003;DHT22;23051;-6.372;106.786;2022-10-16T03:35:34;30.60;86.90
31003;DHT22;23051;-6.372;106.786;2022-10-16T03:37:36;30.70;86.70
31003;DHT22;23051;-6.372;106.786;2022-10-16T03:39:38;30.80;86.60
31003;DHT22;23051;-6.372;106.786;2022-10-16T03:41:42;30.90;86.40
31003;DHT22;23051;-6.372;106.786;2022-10-16T03:43:43;30.90;86.30
31003;DHT22;23051;-6.372;106.786;2022-10-16T03:45:50;30.80;86.50
31003;DHT22;23051;-6.372;106.786;2022-10-16T03:47:52;30.80;86.70
31003;DHT22;23051;-6.372;106.786;2022-10-16T03:49:54;30.80;86.80
31003;DHT22;23051;-6.372;106.786;2022-10-16T03:51:58;30.80;86.70
31003;DHT22;23051;-6.372;106.786;2022-10-16T03:54:02;30.80;86.60
31003;DHT22;23051;-6.372;106.786;2022-10-16T03:56:03;30.80;86.70
31003;DHT22;23051;-6.372;106.786;2022-10-16T03:58:05;30.90;86.50
31003;DHT22;23051;-6.372;106.786;2022-10-16T04:00:15;31.00;86.30
31003;DHT22;23051;-6.372;106.786;2022-10-16T04:02:18;31.00;86.30
31003;DHT22;23051;-6.372;106.786;2022-10-16T04:04:20;30.90;86.30
31003;DHT22;23051;-6.372;106.786;2022-10-16T04:06:24;30.90;86.60
31003;DHT22;23051;-6.372;106.786;2022-10-16T04:08:26;30.80;86.80
31003;DHT22;23051;-6.372;106.786;2022-10-16T04:10:27;30.90;86.80
31003;DHT22;23051;-6.372;106.786;2022-10-16T04:12:29;31.00;86.40
31003;DHT22;23051;-6.372;106.786;2022-10-16T04:14:33;31.20;86.10
31003;DHT22;23051;-6.372;106.786;2022-10-16T04:16:38;31.20;85.90
31003;DHT22;23051;-6.372;106.786;2022-10-16T04:18:39;31.30;85.80
31003;DHT22;23051;-6.372;106.786;2022-10-16T04:20:43;31.30;85.80
31003;DHT22;23051;-6.372;106.786;2022-10-16T04:22:47;31.40;85.50
31003;DHT22;23051;-6.372;106.786;2022-10-16T04:24:49;31.40;85.30
31003;DHT22;23051;-6.372;106.786;2022-10-16T04:26:50;31.40;85.50
31003;DHT22;23051;-6.372;106.786;2022-10-16T04:28:52;31.40;85.60
31003;DHT22;23051;-6.372;106.786;2022-10-16T04:30:56;31.40;85.50
31003;DHT22;23051;-6.372;106.786;2022-10-16T04:32:57;31.40;85.40
31003;DHT22;23051;-6.372;106.786;2022-10-16T04:34:59;31.40;85.40
31003;DHT22;23051;-6.372;106.786;2022-10-16T04:37:01;31.40;85.70
31003;DHT22;23051;-6.372;106.786;2022-10-16T04:39:03;31.40;85.50
31003;DHT22;23051;-6.372;106.786;2022-10-16T04:41:07;31.60;85.30
31003;DHT22;23051;-6.372;106.786;2022-10-16T04:43:11;31.90;84.60
31003;DHT22;23051;-6.372;106.786;2022-10-16T04:45:12;32.00;84.20
31003;DHT22;23051;-6.372;106.786;2022-10-16T04:47:22;32.10;84.00
31003;DHT22;23051;-6.372;106.786;2022-10-16T04:49:24;32.40;83.40
31003;DHT22;23051;-6.372;106.786;2022-10-16T04:51:28;32.60;82.60
31003;DHT22;23051;-6.372;106.786;2022-10-16T04:53:31;32.60;82.40
31003;DHT22;23051;-6.372;106.786;2022-10-16T04:55:34;32.50;82.60
31003;DHT22;23051;-6.372;106.786;2022-10-16T04:57:36;32.40;82.90
31003;DHT22;23051;-6.372;106.786;2022-10-16T04:59:38;32.30;83.30
31003;DHT22;23051;-6.372;106.786;2022-10-16T05:01:40;32.30;83.60
31003;DHT22;23051;-6.372;106.786;2022-10-16T05:03:42;32.20;83.80
31003;DHT22;23051;-6.372;106.786;2022-10-16T05:05:47;32.10;84.10
31003;DHT22;23051;-6.372;106.786;2022-10-16T05:07:49;32.00;85.20
31003;DHT22;23051;-6.372;106.786;2022-10-16T05:09:53;31.90;84.60
31003;DHT22;23051;-6.372;106.786;2022-10-16T05:11:55;31.90;84.80
31003;DHT22;23051;-6.372;106.786;2022-10-16T05:14:00;31.90;84.80
31003;DHT22;23051;-6.372;106.786;2022-10-16T05:16:08;31.90;84.70
31003;DHT22;23051;-6.372;106.786;2022-10-16T05:18:09;31.90;84.80
31003;DHT22;23051;-6.372;106.786;2022-10-16T05:22:12;31.90;84.70
31003;DHT22;23051;-6.372;106.786;2022-10-16T05:24:14;31.90;84.60
31003;DHT22;23051;-6.372;106.786;2022-10-16T05:26:18;31.90;84.60
31003;DHT22;23051;-6.372;106.786;2022-10-16T05:28:27;31.90;84.40
31003;DHT22;23051;-6.372;106.786;2022-10-16T05:30:29;32.10;84.40
31003;DHT22;23051;-6.372;106.786;2022-10-16T05:32:30;32.20;84.00
31003;DHT22;23051;-6.372;106.786;2022-10-16T05:34:34;32.30;83.60
31003;DHT22;23051;-6.372;106.786;2022-10-16T05:36:36;32.50;83.20
31003;DHT22;23051;-6.372;106.786;2022-10-16T05:38:38;32.60;82.80
31003;DHT22;23051;-6.372;106.786;2022-10-16T05:40:55;32.70;82.50
31003;DHT22;23051;-6.372;106.786;2022-10-16T05:43:00;32.80;82.40
31003;DHT22;23051;-6.372;106.786;2022-10-16T05:45:05;32.80;82.30
31003;DHT22;23051;-6.372;106.786;2022-10-16T05:47:12;32.80;82.60
31003;DHT22;23051;-6.372;106.786;2022-10-16T05:49:16;32.80;82.50
31003;DHT22;23051;-6.372;106.786;2022-10-16T05:51:17;32.80;82.50
31003;DHT22;23051;-6.372;106.786;2022-10-16T05:53:19;32.70;81.90
31003;DHT22;23051;-6.372;106.786;2022-10-16T05:55:28;32.80;82.00
31003;DHT22;23051;-6.372;106.786;2022-10-16T05:57:30;32.80;82.70
31003;DHT22;23051;-6.372;106.786;2022-10-16T05:59:36;32.80;82.40
31003;DHT22;23051;-6.372;106.786;2022-10-16T06:01:40;32.80;82.50
31003;DHT22;23051;-6.372;106.786;2022-10-16T06:03:44;32.80;82.70
31003;DHT22;23051;-6.372;106.786;2022-10-16T06:05:46;32.70;82.80
31003;DHT22;23051;-6.372;106.786;2022-10-16T06:07:47;32.70;82.90
31003;DHT22;23051;-6.372;106.786;2022-10-16T06:09:50;32.60;83.00
31003;DHT22;23051;-6.372;106.786;2022-10-16T06:11:52;32.60;83.20
31003;DHT22;23051;-6.372;106.786;2022-10-16T06:13:59;32.40;83.30
31003;DHT22;23051;-6.372;106.786;2022-10-16T06:16:04;32.40;83.50
31003;DHT22;23051;-6.372;106.786;2022-10-16T06:18:09;32.40;83.40
31003;DHT22;23051;-6.372;106.786;2022-10-16T06:20:13;32.60;83.20
31003;DHT22;23051;-6.372;106.786;2022-10-16T06:22:18;32.70;82.90
31003;DHT22;23051;-6.372;106.786;2022-10-16T06:24:20;32.80;82.70
31003;DHT22;23051;-6.372;106.786;2022-10-16T06:26:24;33.00;82.40
31003;DHT22;23051;-6.372;106.786;2022-10-16T06:28:26;33.10;81.90
31003;DHT22;23051;-6.372;106.786;2022-10-16T06:30:28;33.20;81.70
31003;DHT22;23051;-6.372;106.786;2022-10-16T06:32:30;33.20;81.60
31003;DHT22;23051;-6.372;106.786;2022-10-16T06:34:32;33.20;81.70
31003;DHT22;23051;-6.372;106.786;2022-10-16T06:36:39;33.20;82.50
31003;DHT22;23051;-6.372;106.786;2022-10-16T06:38:42;33.30;81.70
31003;DHT22;23051;-6.372;106.786;2022-10-16T06:40:44;33.20;81.70
31003;DHT22;23051;-6.372;106.786;2022-10-16T06:42:46;33.10;82.10
31003;DHT22;23051;-6.372;106.786;2022-10-16T06:44:50;33.00;82.30
31003;DHT22;23051;-6.372;106.786;2022-10-16T06:46:54;32.80;82.60
31003;DHT22;23051;-6.372;106.786;2022-10-16T06:48:58;32.70;83.00
31003;DHT22;23051;-6.372;106.786;2022-10-16T06:51:04;32.60;83.20
31003;DHT22;23051;-6.372;106.786;2022-10-16T06:53:06;32.50;83.50
31003;DHT22;23051;-6.372;106.786;2022-10-16T06:55:08;32.40;83.70
31003;DHT22;23051;-6.372;106.786;2022-10-16T06:57:20;32.30;83.70
31003;DHT22;23051;-6.372;106.786;2022-10-16T06:59:24;32.40;83.60
31003;DHT22;23051;-6.372;106.786;2022-10-16T07:01:29;32.40;83.40
31003;DHT22;23051;-6.372;106.786;2022-10-16T07:03:32;32.60;82.40
31003;DHT22;23051;-6.372;106.786;2022-10-16T07:05:38;32.60;83.10
31003;DHT22;23051;-6.372;106.786;2022-10-16T07:07:39;32.60;82.80
31003;DHT22;23051;-6.372;106.786;2022-10-16T07:09:44;32.70;82.50
31003;DHT22;23051;-6.372;106.786;2022-10-16T07:11:46;32.80;82.20
31003;DHT22;23051;-6.372;106.786;2022-10-16T07:13:48;33.00;82.70
31003;DHT22;23051;-6.372;106.786;2022-10-16T07:15:50;33.10;81.60
31003;DHT22;23051;-6.372;106.786;2022-10-16T07:17:52;33.10;81.50
31003;DHT22;23051;-6.372;106.786;2022-10-16T07:19:53;33.20;81.10
31003;DHT22;23051;-6.372;106.786;2022-10-16T07:21:56;33.30;81.00
31003;DHT22;23051;-6.372;106.786;2022-10-16T07:23:59;33.30;80.90
31003;DHT22;23051;-6.372;106.786;2022-10-16T07:26:04;33.20;81.00
31003;DHT22;23051;-6.372;106.786;2022-10-16T07:28:09;33.10;81.40
31003;DHT22;23051;-6.372;106.786;2022-10-16T07:30:11;33.00;81.60
31003;DHT22;23051;-6.372;106.786;2022-10-16T07:32:20;32.90;81.70
31003;DHT22;23051;-6.372;106.786;2022-10-16T07:34:21;32.90;82.00
31003;DHT22;23051;-6.372;106.786;2022-10-16T07:36:22;33.00;82.00
31003;DHT22;23051;-6.372;106.786;2022-10-16T07:38:24;33.00;81.70
31003;DHT22;23051;-6.372;106.786;2022-10-16T07:40:26;33.10;81.50
31003;DHT22;23051;-6.372;106.786;2022-10-16T07:42:33;33.20;81.20
31003;DHT22;23051;-6.372;106.786;2022-10-16T07:44:37;33.40;81.00
31003;DHT22;23051;-6.372;106.786;2022-10-16T07:46:42;33.50;80.50
31003;DHT22;23051;-6.372;106.786;2022-10-16T07:48:51;33.80;80.20
31003;DHT22;23051;-6.372;106.786;2022-10-16T07:51:02;33.90;79.90
31003;DHT22;23051;-6.372;106.786;2022-10-16T07:53:04;34.10;79.70
31003;DHT22;23051;-6.372;106.786;2022-10-16T07:55:06;34.20;79.40
31003;DHT22;23051;-6.372;106.786;2022-10-16T07:57:07;34.50;79.20
31003;DHT22;23051;-6.372;106.786;2022-10-16T07:59:11;34.70;78.90
31003;DHT22;23051;-6.372;106.786;2022-10-16T08:01:16;34.90;78.70
31003;DHT22;23051;-6.372;106.786;2022-10-16T08:03:24;35.10;78.40
31003;DHT22;23051;-6.372;106.786;2022-10-16T08:05:28;35.20;78.20
31003;DHT22;23051;-6.372;106.786;2022-10-16T08:07:32;35.20;78.30
31003;DHT22;23051;-6.372;106.786;2022-10-16T08:09:33;35.20;78.50
31003;DHT22;23051;-6.372;106.786;2022-10-16T08:11:38;35.10;78.90
31003;DHT22;23051;-6.372;106.786;2022-10-16T08:13:42;35.00;79.40
31003;DHT22;23051;-6.372;106.786;2022-10-16T08:15:44;35.00;79.50
31003;DHT22;23051;-6.372;106.786;2022-10-16T08:17:58;34.80;79.80
31003;DHT22;23051;-6.372;106.786;2022-10-16T08:20:06;34.40;80.60
31003;DHT22;23051;-6.372;106.786;2022-10-16T08:22:15;34.20;81.10
31003;DHT22;23051;-6.372;106.786;2022-10-16T08:24:17;34.10;81.30
31003;DHT22;23051;-6.372;106.786;2022-10-16T08:26:23;33.90;81.60
31003;DHT22;23051;-6.372;106.786;2022-10-16T08:28:28;33.80;81.60
31003;DHT22;23051;-6.372;106.786;2022-10-16T08:30:29;33.90;81.50
31003;DHT22;23051;-6.372;106.786;2022-10-16T08:32:31;33.80;81.20
31003;DHT22;23051;-6.372;106.786;2022-10-16T08:34:35;33.80;81.10
31003;DHT22;23051;-6.372;106.786;2022-10-16T08:36:37;33.70;81.10
31003;DHT22;23051;-6.372;106.786;2022-10-16T08:38:44;33.70;81.20
31003;DHT22;23051;-6.372;106.786;2022-10-16T08:40:48;33.70;81.10
31003;DHT22;23051;-6.372;106.786;2022-10-16T08:45:06;33.50;81.10
31003;DHT22;23051;-6.372;106.786;2022-10-16T08:49:21;33.20;81.70
31003;DHT22;23051;-6.372;106.786;2022-10-16T08:51:29;32.90;81.50
31003;DHT22;23051;-6.372;106.786;2022-10-16T08:53:49;32.90;82.20
31003;DHT22;23051;-6.372;106.786;2022-10-16T08:55:56;32.90;82.30
31003;DHT22;23051;-6.372;106.786;2022-10-16T08:58:04;32.80;82.30
31003;DHT22;23051;-6.372;106.786;2022-10-16T09:00:13;32.80;82.40
31003;DHT22;23051;-6.372;106.786;2022-10-16T09:04:43;32.50;82.70
31003;DHT22;23051;-6.372;106.786;2022-10-16T09:07:04;32.40;82.80
31003;DHT22;23051;-6.372;106.786;2022-10-16T09:09:18;32.40;82.90
31003;DHT22;23051;-6.372;106.786;2022-10-16T09:13:39;32.20;83.00
31003;DHT22;23051;-6.372;106.786;2022-10-16T09:15:48;32.20;83.00
31003;DHT22;23051;-6.372;106.786;2022-10-16T09:22:10;32.10;83.30
31003;DHT22;23051;-6.372;106.786;2022-10-16T09:24:17;32.00;83.10
31003;DHT22;23051;-6.372;106.786;2022-10-16T09:26:19;32.10;83.00
31003;DHT22;23051;-6.372;106.786;2022-10-16T09:28:22;32.00;82.90
31003;DHT22;23051;-6.372;106.786;2022-10-16T09:30:28;32.00;82.90
31003;DHT22;23051;-6.372;106.786;2022-10-16T09:32:33;32.00;82.90
31003;DHT22;23051;-6.372;106.786;2022-10-16T09:34:39;32.00;82.80
31003;DHT22;23051;-6.372;106.786;2022-10-16T09:36:45;32.00;82.80
31003;DHT22;23051;-6.372;106.786;2022-10-16T09:38:48;32.00;82.70
31003;DHT22;23051;-6.372;106.786;2022-10-16T09:40:53;32.00;82.60
31003;DHT22;23051;-6.372;106.786;2022-10-16T09:45:19;32.00;82.50
31003;DHT22;23051;-6.372;106.786;2022-10-16T09:47:23;32.00;82.50
31003;DHT22;23051;-6.372;106.786;2022-10-16T09:49:28;31.90;82.70
31003;DHT22;23051;-6.372;106.786;2022-10-16T09:51:34;31.90;82.60
31003;DHT22;23051;-6.372;106.786;2022-10-16T09:53:45;31.80;82.60
31003;DHT22;23051;-6.372;106.786;2022-10-16T09:55:52;31.80;82.70
31003;DHT22;23051;-6.372;106.786;2022-10-16T09:57:56;31.80;82.70
31003;DHT22;23051;-6.372;106.786;2022-10-16T09:59:58;31.70;82.70
31003;DHT22;23051;-6.372;106.786;2022-10-16T10:02:08;31.70;82.90
31003;DHT22;23051;-6.372;106.786;2022-10-16T10:04:14;31.50;82.90
31003;DHT22;23051;-6.372;106.786;2022-10-16T10:06:18;31.50;83.10
31003;DHT22;23051;-6.372;106.786;2022-10-16T10:08:27;31.50;83.20
31003;DHT22;23051;-6.372;106.786;2022-10-16T10:10:31;31.40;83.40
31003;DHT22;23051;-6.372;106.786;2022-10-16T10:12:33;31.40;83.50
31003;DHT22;23051;-6.372;106.786;2022-10-16T10:14:39;31.40;83.40
31003;DHT22;23051;-6.372;106.786;2022-10-16T10:16:42;31.40;83.30
31003;DHT22;23051;-6.372;106.786;2022-10-16T10:18:47;31.40;83.00
31003;DHT22;23051;-6.372;106.786;2022-10-16T10:21:01;31.50;83.00
31003;DHT22;23051;-6.372;106.786;2022-10-16T10:32:12;31.40;82.70
31003;DHT22;23051;-6.372;106.786;2022-10-16T10:34:29;31.40;82.70
31003;DHT22;23051;-6.372;106.786;2022-10-16T10:36:41;31.40;82.80
31003;DHT22;23051;-6.372;106.786;2022-10-16T10:41:00;31.20;83.00
31003;DHT22;23051;-6.372;106.786;2022-10-16T10:45:36;31.20;83.10
31003;DHT22;23051;-6.372;106.786;2022-10-16T10:50:07;31.20;83.00
31003;DHT22;23051;-6.372;106.786;2022-10-16T10:54:26;31.10;83.30
31003;DHT22;23051;-6.372;106.786;2022-10-16T10:58:45;31.00;83.10
31003;DHT22;23051;-6.372;106.786;2022-10-16T11:26:27;30.80;82.50
31003;DHT22;23051;-6.372;106.786;2022-10-16T11:28:43;30.80;82.50
31003;DHT22;23051;-6.372;106.786;2022-10-16T11:33:00;30.80;82.30
31003;DHT22;23051;-6.372;106.786;2022-10-16T11:35:11;30.80;82.30
31003;DHT22;23051;-6.372;106.786;2022-10-16T11:37:25;30.80;83.10
31003;DHT22;23051;-6.372;106.786;2022-10-16T11:39:30;30.80;83.30
31003;DHT22;23051;-6.372;106.786;2022-10-16T11:44:26;30.70;82.70
31003;DHT22;23051;-6.372;106.786;2022-10-16T11:46:20;30.70;83.40
31003;DHT22;23051;-6.372;106.786;2022-10-16T11:48:32;30.70;84.20
31003;DHT22;23051;-6.372;106.786;2022-10-16T11:55:16;30.70;83.40
31003;DHT22;23051;-6.372;106.786;2022-10-16T11:57:26;30.70;82.50
31003;DHT22;23051;-6.372;106.786;2022-10-16T11:59:37;30.70;82.50
31003;DHT22;23051;-6.372;106.786;2022-10-16T12:08:29;30.60;83.30
31003;DHT22;23051;-6.372;106.786;2022-10-16T12:10:34;30.60;83.30
31003;DHT22;23051;-6.372;106.786;2022-10-16T12:12:39;30.60;83.30
31003;DHT22;23051;-6.372;106.786;2022-10-16T12:14:41;30.50;83.30
31003;DHT22;23051;-6.372;106.786;2022-10-16T12:16:59;30.60;83.60
31003;DHT22;23051;-6.372;106.786;2022-10-16T12:19:12;30.50;82.90
31003;DHT22;23051;-6.372;106.786;2022-10-16T12:21:14;30.50;83.70
31003;DHT22;23051;-6.372;106.786;2022-10-16T12:23:23;30.50;82.90
31003;DHT22;23051;-6.372;106.786;2022-10-16T12:25:29;30.50;82.80
31003;DHT22;23051;-6.372;106.786;2022-10-16T12:42:30;30.50;82.60
31003;DHT22;23051;-6.372;106.786;2022-10-16T12:44:37;30.40;83.50
31003;DHT22;23051;-6.372;106.786;2022-10-16T12:48:47;30.50;83.20
31003;DHT22;23051;-6.372;106.786;2022-10-16T12:50:52;30.60;83.10
31003;DHT22;23051;-6.372;106.786;2022-10-16T12:52:58;30.70;82.80
31003;DHT22;23051;-6.372;106.786;2022-10-16T12:55:03;30.80;82.70
31003;DHT22;23051;-6.372;106.786;2022-10-16T13:01:28;30.80;82.50
31003;DHT22;23051;-6.372;106.786;2022-10-16T13:03:58;30.80;82.70
31003;DHT22;23051;-6.372;106.786;2022-10-16T13:06:02;30.70;83.00
31003;DHT22;23051;-6.372;106.786;2022-10-16T13:12:35;30.70;83.50
31003;DHT22;23051;-6.372;106.786;2022-10-16T13:15:25;30.70;83.30
31003;DHT22;23051;-6.372;106.786;2022-10-16T13:19:28;30.60;82.70
31003;DHT22;23051;-6.372;106.786;2022-10-16T13:21:38;30.50;82.90
31003;DHT22;23051;-6.372;106.786;2022-10-16T14:20:50;30.50;85.30
31003;DHT22;23051;-6.372;106.786;2022-10-16T14:23:01;30.40;85.60
31003;DHT22;23051;-6.372;106.786;2022-10-16T14:25:32;30.30;85.60
31003;DHT22;23051;-6.372;106.786;2022-10-16T14:27:34;30.30;85.70
31003;DHT22;23051;-6.372;106.786;2022-10-16T14:29:39;30.20;85.60
31003;DHT22;23051;-6.372;106.786;2022-10-16T14:31:42;30.20;85.60
31003;DHT22;23051;-6.372;106.786;2022-10-16T14:33:44;30.20;85.40
31003;DHT22;23051;-6.372;106.786;2022-10-16T14:38:05;30.20;86.70
31003;DHT22;23051;-6.372;106.786;2022-10-16T14:40:14;30.10;85.90
31003;DHT22;23051;-6.372;106.786;2022-10-16T14:42:18;30.10;85.90
31003;DHT22;23051;-6.372;106.786;2022-10-16T14:44:24;30.10;85.90
31003;DHT22;23051;-6.372;106.786;2022-10-16T14:46:44;30.00;86.00
31003;DHT22;23051;-6.372;106.786;2022-10-16T14:48:48;30.00;85.40
31003;DHT22;23051;-6.372;106.786;2022-10-16T14:50:51;29.90;85.30
31003;DHT22;23051;-6.372;106.786;2022-10-16T14:52:53;29.90;86.00
31003;DHT22;23051;-6.372;106.786;2022-10-16T14:54:57;29.90;85.90
31003;DHT22;23051;-6.372;106.786;2022-10-16T14:56:58;29.90;85.90
31003;DHT22;23051;-6.372;106.786;2022-10-16T14:59:03;29.90;85.90
31003;DHT22;23051;-6.372;106.786;2022-10-16T15:01:05;29.90;85.80
31003;DHT22;23051;-6.372;106.786;2022-10-16T15:03:10;29.90;85.90
31003;DHT22;23051;-6.372;106.786;2022-10-16T15:05:21;29.90;85.10
31003;DHT22;23051;-6.372;106.786;2022-10-16T15:07:25;29.90;85.00
31003;DHT22;23051;-6.372;106.786;2022-10-16T15:09:27;29.90;85.00
31003;DHT22;23051;-6.372;106.786;2022-10-16T15:11:29;29.90;85.10
31003;DHT22;23051;-6.372;106.786;2022-10-16T15:13:35;29.80;85.00
31003;DHT22;23051;-6.372;106.786;2022-10-16T15:15:40;29.80;85.10
31003;DHT22;23051;-6.372;106.786;2022-10-16T15:17:45;29.80;85.00
31003;DHT22;23051;-6.372;106.786;2022-10-16T15:19:52;29.80;85.00
31003;DHT22;23051;-6.372;106.786;2022-10-16T15:21:55;29.80;85.70
31003;DHT22;23051;-6.372;106.786;2022-10-16T15:24:00;29.80;85.70
31003;DHT22;23051;-6.372;106.786;2022-10-16T15:26:02;29.80;85.60
31003;DHT22;23051;-6.372;106.786;2022-10-16T15:28:07;29.70;84.80
31003;DHT22;23051;-6.372;106.786;2022-10-16T15:30:17;29.70;85.60
31003;DHT22;23051;-6.372;106.786;2022-10-16T15:32:19;29.70;85.00
31003;DHT22;23051;-6.372;106.786;2022-10-16T15:34:23;29.70;85.80
31003;DHT22;23051;-6.372;106.786;2022-10-16T15:36:27;29.70;85.70
31003;DHT22;23051;-6.372;106.786;2022-10-16T15:38:30;29.70;85.10
31003;DHT22;23051;-6.372;106.786;2022-10-16T15:53:09;29.90;85.80
31003;DHT22;23051;-6.372;106.786;2022-10-16T15:55:12;29.90;86.90
31003;DHT22;23051;-6.372;106.786;2022-10-16T15:57:14;29.80;87.00
31003;DHT22;23051;-6.372;106.786;2022-10-16T15:59:16;29.70;87.00
31003;DHT22;23051;-6.372;106.786;2022-10-16T16:01:17;29.70;88.00
31003;DHT22;23051;-6.372;106.786;2022-10-16T16:03:22;29.70;87.20
31003;DHT22;23051;-6.372;106.786;2022-10-16T16:05:24;29.60;87.20
31003;DHT22;23051;-6.372;106.786;2022-10-16T16:07:28;29.50;87.40
31003;DHT22;23051;-6.372;106.786;2022-10-16T16:09:30;29.40;87.60